AFR659 LFQQ-LGAV
Flight info
| Callsign | AFR659 |
|---|---|
| Flight time | N/A |
| Altitude | FL370 |
| Route | CIV6L CIV UM617 BUPAL UL607 SPI LIRSU ULNOK VIBOM NOMBO RIDAR RADIZ NIPEL ZARVE KOTOR TUPUS MONID NAVSU EMKES XELMI AKIKA ENFAR TALAS UM749 ELPIS SIGFO UM749 ROPOX ROPO1K |
| Aircraft | A321/M-SDE3FGHIRWY/LB1 |
Departure
| Time | N/A |
|---|---|
| Airport | Lille Airport (LFQQ) |
Arrival
| Time | 2026-05-04 13:44 |
|---|---|
| Airport | Athens Eleftherios Venizelos International Airport (LGAV) |
| Time | Latitude | Longitude | Altitude | Speed | Heading |
|---|---|---|---|---|---|
| 2026-05-04 12:38 | 43.19258 | 18.71234 | 37174 ft | 482 kts | 133° |
| 2026-05-04 12:39 | 43.16910 | 18.74462 | 37171 ft | 482 kts | 133° |
| 2026-05-04 12:39 | 43.12195 | 18.80936 | 37193 ft | 482 kts | 133° |
| 2026-05-04 12:40 | 43.07491 | 18.87382 | 37220 ft | 481 kts | 133° |
| 2026-05-04 12:40 | 43.02779 | 18.93822 | 37219 ft | 481 kts | 133° |
| 2026-05-04 12:41 | 42.98038 | 19.00284 | 37207 ft | 481 kts | 133° |
| 2026-05-04 12:41 | 42.93315 | 19.06704 | 37199 ft | 481 kts | 133° |
| 2026-05-04 12:42 | 42.88602 | 19.13101 | 37195 ft | 481 kts | 133° |
| 2026-05-04 12:42 | 42.83851 | 19.19517 | 37179 ft | 480 kts | 133° |
| 2026-05-04 12:43 | 42.79111 | 19.25905 | 37178 ft | 481 kts | 133° |
| 2026-05-04 12:43 | 42.74381 | 19.32275 | 37180 ft | 481 kts | 133° |
| 2026-05-04 12:44 | 42.69643 | 19.38665 | 37170 ft | 481 kts | 132° |
| 2026-05-04 12:44 | 42.64902 | 19.45045 | 37179 ft | 481 kts | 133° |
| 2026-05-04 12:45 | 42.60148 | 19.51412 | 37179 ft | 481 kts | 133° |
| 2026-05-04 12:45 | 42.55379 | 19.57775 | 37183 ft | 482 kts | 133° |
| 2026-05-04 12:46 | 42.50514 | 19.63995 | 37175 ft | 483 kts | 135° |
| 2026-05-04 12:46 | 42.45555 | 19.70104 | 37174 ft | 484 kts | 135° |
| 2026-05-04 12:47 | 42.40597 | 19.76201 | 37168 ft | 483 kts | 135° |
| 2026-05-04 12:47 | 42.35615 | 19.82316 | 37171 ft | 484 kts | 135° |
| 2026-05-04 12:48 | 42.30649 | 19.88398 | 37183 ft | 484 kts | 135° |
| 2026-05-04 12:48 | 42.25676 | 19.94477 | 37158 ft | 485 kts | 135° |
| 2026-05-04 12:49 | 42.20682 | 20.00569 | 37160 ft | 485 kts | 135° |
| 2026-05-04 12:49 | 42.15707 | 20.06624 | 37153 ft | 484 kts | 135° |
| 2026-05-04 12:50 | 42.10713 | 20.12690 | 37161 ft | 485 kts | 135° |
| 2026-05-04 12:50 | 42.05725 | 20.18736 | 37161 ft | 485 kts | 135° |
| 2026-05-04 12:51 | 42.00700 | 20.24807 | 37159 ft | 486 kts | 135° |
| 2026-05-04 12:51 | 41.95695 | 20.30849 | 37160 ft | 486 kts | 135° |
| 2026-05-04 12:52 | 41.90673 | 20.36892 | 37150 ft | 486 kts | 135° |
| 2026-05-04 12:52 | 41.85662 | 20.42915 | 37156 ft | 486 kts | 135° |
| 2026-05-04 12:53 | 41.80680 | 20.48952 | 37147 ft | 485 kts | 133° |
| 2026-05-04 12:53 | 41.76104 | 20.55564 | 37135 ft | 483 kts | 125° |
| 2026-05-04 12:54 | 41.72205 | 20.62785 | 37138 ft | 480 kts | 118° |
| 2026-05-04 12:54 | 41.68579 | 20.70233 | 37140 ft | 480 kts | 119° |
| 2026-05-04 12:55 | 41.64942 | 20.77665 | 37139 ft | 480 kts | 119° |
| 2026-05-04 12:55 | 41.61288 | 20.85082 | 37144 ft | 480 kts | 119° |
| 2026-05-04 12:56 | 41.57619 | 20.92502 | 37153 ft | 480 kts | 119° |
| 2026-05-04 12:56 | 41.53949 | 20.99896 | 37141 ft | 479 kts | 119° |
| 2026-05-04 12:57 | 41.50276 | 21.07266 | 37134 ft | 479 kts | 120° |
| 2026-05-04 12:57 | 41.46591 | 21.14629 | 37149 ft | 479 kts | 120° |
| 2026-05-04 12:58 | 41.42904 | 21.22004 | 37136 ft | 479 kts | 119° |
| 2026-05-04 12:58 | 41.39232 | 21.29362 | 37141 ft | 478 kts | 119° |
| 2026-05-04 12:59 | 41.35559 | 21.36690 | 37139 ft | 478 kts | 119° |
| 2026-05-04 12:59 | 41.31859 | 21.44042 | 37134 ft | 478 kts | 119° |
| 2026-05-04 13:00 | 41.28172 | 21.51353 | 37136 ft | 478 kts | 119° |
| 2026-05-04 13:00 | 41.24480 | 21.58651 | 37138 ft | 478 kts | 119° |
| 2026-05-04 13:01 | 41.20776 | 21.65956 | 37138 ft | 478 kts | 120° |
| 2026-05-04 13:01 | 41.17067 | 21.73257 | 37129 ft | 478 kts | 120° |
| 2026-05-04 13:02 | 41.13360 | 21.80531 | 37129 ft | 478 kts | 120° |
| 2026-05-04 13:02 | 41.09363 | 21.87540 | 37134 ft | 481 kts | 127° |
| 2026-05-04 13:03 | 41.04673 | 21.93894 | 37128 ft | 484 kts | 135° |
| 2026-05-04 13:03 | 40.99379 | 21.99410 | 37116 ft | 487 kts | 142° |
| 2026-05-04 13:04 | 40.93830 | 22.04491 | 37117 ft | 488 kts | 143° |
| 2026-05-04 13:04 | 40.88269 | 22.09579 | 37122 ft | 487 kts | 142° |
| 2026-05-04 13:05 | 40.82697 | 22.14694 | 37130 ft | 488 kts | 142° |
| 2026-05-04 13:05 | 40.77158 | 22.19780 | 37113 ft | 487 kts | 142° |
| 2026-05-04 13:06 | 40.71621 | 22.24855 | 37099 ft | 487 kts | 143° |
| 2026-05-04 13:06 | 40.66062 | 22.29938 | 37092 ft | 486 kts | 143° |
| 2026-05-04 13:07 | 40.60531 | 22.34986 | 37102 ft | 486 kts | 143° |
| 2026-05-04 13:07 | 40.55003 | 22.40021 | 37099 ft | 486 kts | 142° |
| 2026-05-04 13:08 | 40.49466 | 22.45055 | 37101 ft | 486 kts | 143° |
| 2026-05-04 13:08 | 40.43910 | 22.50093 | 37104 ft | 485 kts | 143° |
| 2026-05-04 13:09 | 40.38387 | 22.55096 | 37094 ft | 486 kts | 143° |
| 2026-05-04 13:09 | 40.32832 | 22.60079 | 37094 ft | 487 kts | 144° |
| 2026-05-04 13:10 | 40.27017 | 22.64674 | 37097 ft | 488 kts | 147° |
| 2026-05-04 13:10 | 40.21234 | 22.69133 | 37089 ft | 488 kts | 148° |
| 2026-05-04 13:11 | 40.15421 | 22.73611 | 37099 ft | 487 kts | 148° |
| 2026-05-04 13:11 | 40.09595 | 22.78095 | 37092 ft | 487 kts | 148° |
| 2026-05-04 13:12 | 40.03752 | 22.82587 | 37102 ft | 488 kts | 148° |
| 2026-05-04 13:12 | 39.97941 | 22.87048 | 37106 ft | 488 kts | 148° |
| 2026-05-04 13:13 | 39.92096 | 22.91525 | 37109 ft | 489 kts | 148° |
| 2026-05-04 13:13 | 39.86219 | 22.96014 | 37113 ft | 489 kts | 148° |
| 2026-05-04 13:14 | 39.80383 | 23.00467 | 37125 ft | 489 kts | 148° |
| 2026-05-04 13:14 | 39.74530 | 23.04924 | 37125 ft | 490 kts | 148° |
| 2026-05-04 13:15 | 39.68668 | 23.09376 | 37120 ft | 490 kts | 148° |
| 2026-05-04 13:15 | 39.62768 | 23.13849 | 37118 ft | 490 kts | 148° |
| 2026-05-04 13:16 | 39.56905 | 23.18288 | 37117 ft | 490 kts | 148° |
| 2026-05-04 13:16 | 39.51045 | 23.22711 | 37118 ft | 490 kts | 148° |
| 2026-05-04 13:17 | 39.45131 | 23.27169 | 37119 ft | 491 kts | 148° |
| 2026-05-04 13:17 | 39.39247 | 23.31595 | 37113 ft | 491 kts | 148° |
| 2026-05-04 13:18 | 39.33360 | 23.36012 | 37122 ft | 491 kts | 148° |
| 2026-05-04 13:18 | 39.27469 | 23.40427 | 37120 ft | 492 kts | 148° |
| 2026-05-04 13:19 | 39.21535 | 23.44864 | 37121 ft | 493 kts | 149° |
| 2026-05-04 13:19 | 39.15637 | 23.49266 | 37116 ft | 492 kts | 149° |
| 2026-05-04 13:20 | 39.09727 | 23.53670 | 37142 ft | 493 kts | 149° |
| 2026-05-04 13:20 | 39.03774 | 23.58093 | 37122 ft | 493 kts | 149° |
| 2026-05-04 13:21 | 38.97709 | 23.62132 | 37126 ft | 493 kts | 156° |
| 2026-05-04 13:21 | 38.91276 | 23.65012 | 37126 ft | 492 kts | 166° |
| 2026-05-04 13:22 | 38.84613 | 23.66635 | 37115 ft | 491 kts | 175° |
| 2026-05-04 13:22 | 38.77801 | 23.67597 | 37122 ft | 492 kts | 175° |
| 2026-05-04 13:23 | 38.71033 | 23.68549 | 37116 ft | 492 kts | 175° |
| 2026-05-04 13:23 | 38.64256 | 23.69530 | 37114 ft | 492 kts | 176° |
| 2026-05-04 13:24 | 38.57436 | 23.70506 | 37110 ft | 493 kts | 175° |
| 2026-05-04 13:24 | 38.50649 | 23.71514 | 36471 ft | 492 kts | 175° |
| 2026-05-04 13:25 | 38.43813 | 23.72524 | 34637 ft | 506 kts | 175° |
| 2026-05-04 13:25 | 38.40310 | 23.72889 | 33716 ft | 509 kts | 182° |
| 2026-05-04 13:25 | 38.36824 | 23.72503 | 33024 ft | 502 kts | 192° |
| 2026-05-04 13:25 | 38.33408 | 23.71724 | 32665 ft | 492 kts | 194° |
| 2026-05-04 13:26 | 38.30059 | 23.70872 | 31827 ft | 496 kts | 195° |
| 2026-05-04 13:26 | 38.26706 | 23.69992 | 30764 ft | 504 kts | 195° |
| 2026-05-04 13:26 | 38.23253 | 23.69062 | 29747 ft | 508 kts | 195° |
| 2026-05-04 13:26 | 38.19829 | 23.68117 | 28830 ft | 509 kts | 195° |
| 2026-05-04 13:27 | 38.16398 | 23.67145 | 28104 ft | 503 kts | 195° |
| 2026-05-04 13:27 | 38.13015 | 23.66179 | 27792 ft | 489 kts | 195° |
| 2026-05-04 13:27 | 38.09749 | 23.65235 | 27309 ft | 481 kts | 195° |
| 2026-05-04 13:27 | 38.06508 | 23.64295 | 26561 ft | 479 kts | 195° |
| 2026-05-04 13:28 | 38.03269 | 23.63352 | 25819 ft | 476 kts | 195° |
| 2026-05-04 13:28 | 38.00116 | 23.62407 | 25078 ft | 474 kts | 195° |
| 2026-05-04 13:28 | 37.96929 | 23.61433 | 24326 ft | 471 kts | 195° |
| 2026-05-04 13:28 | 37.93786 | 23.60452 | 23838 ft | 461 kts | 195° |
| 2026-05-04 13:29 | 37.90740 | 23.59492 | 23359 ft | 453 kts | 195° |
| 2026-05-04 13:29 | 37.87662 | 23.58516 | 22747 ft | 447 kts | 195° |
| 2026-05-04 13:29 | 37.84663 | 23.57576 | 22097 ft | 444 kts | 195° |
| 2026-05-04 13:29 | 37.81704 | 23.56666 | 21462 ft | 440 kts | 195° |
| 2026-05-04 13:30 | 37.78728 | 23.55771 | 20850 ft | 436 kts | 195° |
| 2026-05-04 13:30 | 37.75783 | 23.54881 | 19872 ft | 441 kts | 195° |
| 2026-05-04 13:30 | 37.72861 | 23.53996 | 18869 ft | 430 kts | 195° |
| 2026-05-04 13:30 | 37.69992 | 23.53121 | 17863 ft | 419 kts | 195° |
| 2026-05-04 13:31 | 37.67215 | 23.52229 | 16844 ft | 407 kts | 201° |
| 2026-05-04 13:31 | 37.64728 | 23.50707 | 15849 ft | 394 kts | 213° |
| 2026-05-04 13:31 | 37.62399 | 23.48968 | 14838 ft | 386 kts | 213° |
| 2026-05-04 13:31 | 37.59947 | 23.47760 | 13819 ft | 384 kts | 193° |
| 2026-05-04 13:32 | 37.57318 | 23.47656 | 12826 ft | 378 kts | 172° |
| 2026-05-04 13:32 | 37.54864 | 23.48674 | 11841 ft | 370 kts | 150° |
| 2026-05-04 13:32 | 37.52922 | 23.50623 | 10848 ft | 359 kts | 128° |
| 2026-05-04 13:32 | 37.51540 | 23.53202 | 9843 ft | 350 kts | 117° |
| 2026-05-04 13:33 | 37.50381 | 23.55826 | 8852 ft | 344 kts | 116° |
| 2026-05-04 13:33 | 37.49467 | 23.58510 | 7843 ft | 335 kts | 100° |
| 2026-05-04 13:33 | 37.49382 | 23.61361 | 6840 ft | 322 kts | 77° |
| 2026-05-04 13:33 | 37.50180 | 23.63876 | 5944 ft | 306 kts | 52° |
| 2026-05-04 13:34 | 37.51601 | 23.65729 | 5208 ft | 291 kts | 38° |
| 2026-05-04 13:34 | 37.53138 | 23.67295 | 4513 ft | 281 kts | 36° |
| 2026-05-04 13:34 | 37.54643 | 23.68751 | 4093 ft | 262 kts | 33° |
| 2026-05-04 13:34 | 37.56194 | 23.69744 | 3996 ft | 240 kts | 18° |
| 2026-05-04 13:35 | 37.57720 | 23.70388 | 3986 ft | 223 kts | 15° |
| 2026-05-04 13:35 | 37.60549 | 23.71497 | 4096 ft | 211 kts | 15° |
| 2026-05-04 13:35 | 37.61946 | 23.72046 | 4049 ft | 211 kts | 15° |
| 2026-05-04 13:36 | 37.63344 | 23.72593 | 4021 ft | 211 kts | 15° |
| 2026-05-04 13:36 | 37.64758 | 23.73148 | 4012 ft | 211 kts | 15° |
| 2026-05-04 13:36 | 37.66156 | 23.73700 | 4008 ft | 211 kts | 15° |
| 2026-05-04 13:36 | 37.67545 | 23.74250 | 4001 ft | 205 kts | 15° |
| 2026-05-04 13:37 | 37.68835 | 23.74766 | 3975 ft | 184 kts | 15° |
| 2026-05-04 13:37 | 37.70027 | 23.75249 | 3984 ft | 180 kts | 15° |
| 2026-05-04 13:37 | 37.71219 | 23.75725 | 3991 ft | 179 kts | 14° |
| 2026-05-04 13:37 | 37.72018 | 23.76030 | 3993 ft | 179 kts | 14° |
| 2026-05-04 13:38 | 37.73557 | 23.76815 | 3998 ft | 180 kts | 24° |
| 2026-05-04 13:38 | 37.74641 | 23.77628 | 3998 ft | 182 kts | 29° |
| 2026-05-04 13:38 | 37.75689 | 23.78517 | 3995 ft | 182 kts | 31° |
| 2026-05-04 13:38 | 37.76718 | 23.79443 | 3990 ft | 183 kts | 32° |
| 2026-05-04 13:39 | 37.77743 | 23.80395 | 3844 ft | 183 kts | 33° |
| 2026-05-04 13:39 | 37.78748 | 23.81347 | 3605 ft | 182 kts | 34° |
| 2026-05-04 13:39 | 37.79722 | 23.82279 | 3354 ft | 168 kts | 33° |
| 2026-05-04 13:39 | 37.80630 | 23.83146 | 3123 ft | 160 kts | 33° |
| 2026-05-04 13:40 | 37.81507 | 23.83987 | 2929 ft | 158 kts | 33° |
| 2026-05-04 13:40 | 37.82382 | 23.84828 | 2733 ft | 158 kts | 34° |
| 2026-05-04 13:40 | 37.83255 | 23.85667 | 2539 ft | 158 kts | 34° |
| 2026-05-04 13:40 | 37.84127 | 23.86503 | 2343 ft | 158 kts | 35° |
| 2026-05-04 13:41 | 37.85000 | 23.87339 | 2170 ft | 158 kts | 35° |
| 2026-05-04 13:41 | 37.85848 | 23.88152 | 1941 ft | 147 kts | 34° |
| 2026-05-04 13:41 | 37.86629 | 23.88897 | 1717 ft | 136 kts | 35° |
| 2026-05-04 13:42 | 37.88185 | 23.90379 | 1385 ft | 145 kts | 37° |
| 2026-05-04 13:42 | 37.88976 | 23.91129 | 1184 ft | 140 kts | 36° |
| 2026-05-04 13:42 | 37.89736 | 23.91849 | 991 ft | 135 kts | 38° |
| 2026-05-04 13:42 | 37.90500 | 23.92585 | 834 ft | 140 kts | 40° |
| 2026-05-04 13:43 | 37.91282 | 23.93312 | 645 ft | 140 kts | 37° |
| 2026-05-04 13:43 | 37.92065 | 23.94040 | 452 ft | 137 kts | 39° |
| 2026-05-04 13:43 | 37.92800 | 23.94746 | 295 ft | 131 kts | 39° |
| 2026-05-04 13:43 | 37.93334 | 23.95255 | 291 ft | 53 kts | 36° |
| 2026-05-04 13:44 | 37.93560 | 23.95468 | 290 ft | 38 kts | 38° |
| 2026-05-04 13:44 | 37.93764 | 23.95647 | 291 ft | 34 kts | 27° |
| 2026-05-04 13:44 | 37.93954 | 23.95722 | 294 ft | 15 kts | 7° |
| 2026-05-04 13:44 | 37.94038 | 23.95694 | 296 ft | 13 kts | 290° |
| 2026-05-04 13:45 | 37.93991 | 23.95610 | 296 ft | 13 kts | 213° |
| 2026-05-04 13:45 | 37.93914 | 23.95537 | 295 ft | 15 kts | 220° |
| 2026-05-04 13:45 | 37.93828 | 23.95451 | 294 ft | 16 kts | 217° |
| 2026-05-04 13:45 | 37.93736 | 23.95370 | 294 ft | 17 kts | 213° |
| 2026-05-04 13:46 | 37.93656 | 23.95287 | 295 ft | 11 kts | 238° |
| 2026-05-04 13:46 | 37.93660 | 23.95209 | 299 ft | 7 kts | 294° |
| 2026-05-04 13:46 | 37.93679 | 23.95173 | 302 ft | 3 kts | 306° |
| 2026-05-04 13:46 | 37.93701 | 23.95135 | 303 ft | 9 kts | 304° |
| 2026-05-04 13:47 | 37.93697 | 23.95070 | 304 ft | 8 kts | 249° |
| 2026-05-04 13:47 | 37.93719 | 23.95020 | 305 ft | 6 kts | 309° |
| 2026-05-04 13:47 | 37.93731 | 23.95002 | 308 ft | 5 kts | 308° |
| 2026-05-04 13:47 | 37.93743 | 23.94982 | 308 ft | 0 kts | 308° |